sensor_id;sensor_type;location;lat;lon;timestamp;P1;durP1;ratioP1;P2;durP2;ratioP2
63050;SDS011;49136;47.416;19.402;2022-11-20T00:00:25;16.95;;;4.75;;
63050;SDS011;49136;47.416;19.402;2022-11-20T00:02:51;27.52;;;7.15;;
63050;SDS011;49136;47.416;19.402;2022-11-20T00:05:16;23.50;;;5.82;;
63050;SDS011;49136;47.416;19.402;2022-11-20T00:07:42;13.70;;;4.53;;
63050;SDS011;49136;47.416;19.402;2022-11-20T00:10:07;9.52;;;4.75;;
63050;SDS011;49136;47.416;19.402;2022-11-20T00:12:32;20.63;;;7.70;;
63050;SDS011;49136;47.416;19.402;2022-11-20T00:14:58;13.18;;;4.55;;
63050;SDS011;49136;47.416;19.402;2022-11-20T00:17:23;8.73;;;4.35;;
63050;SDS011;49136;47.416;19.402;2022-11-20T00:19:49;16.17;;;6.72;;
63050;SDS011;49136;47.416;19.402;2022-11-20T00:22:14;12.07;;;6.03;;
63050;SDS011;49136;47.416;19.402;2022-11-20T00:24:39;6.55;;;4.00;;
63050;SDS011;49136;47.416;19.402;2022-11-20T00:27:05;22.02;;;8.13;;
63050;SDS011;49136;47.416;19.402;2022-11-20T00:29:30;5.03;;;3.05;;
63050;SDS011;49136;47.416;19.402;2022-11-20T00:31:55;12.98;;;5.05;;
63050;SDS011;49136;47.416;19.402;2022-11-20T00:34:21;28.23;;;9.23;;
63050;SDS011;49136;47.416;19.402;2022-11-20T00:36:46;18.55;;;6.82;;
63050;SDS011;49136;47.416;19.402;2022-11-20T00:39:11;17.10;;;5.65;;
63050;SDS011;49136;47.416;19.402;2022-11-20T00:41:37;14.07;;;4.80;;
63050;SDS011;49136;47.416;19.402;2022-11-20T00:44:02;11.48;;;3.95;;
63050;SDS011;49136;47.416;19.402;2022-11-20T00:46:27;16.98;;;6.75;;
63050;SDS011;49136;47.416;19.402;2022-11-20T00:48:54;17.92;;;7.25;;
63050;SDS011;49136;47.416;19.402;2022-11-20T00:51:20;29.10;;;7.10;;
63050;SDS011;49136;47.416;19.402;2022-11-20T00:53:48;18.48;;;7.18;;
63050;SDS011;49136;47.416;19.402;2022-11-20T00:56:15;19.30;;;6.57;;
63050;SDS011;49136;47.416;19.402;2022-11-20T00:58:43;17.30;;;5.80;;
63050;SDS011;49136;47.416;19.402;2022-11-20T01:01:10;18.40;;;6.63;;
63050;SDS011;49136;47.416;19.402;2022-11-20T01:03:40;26.65;;;6.72;;
63050;SDS011;49136;47.416;19.402;2022-11-20T01:06:13;15.82;;;4.20;;
63050;SDS011;49136;47.416;19.402;2022-11-20T01:08:44;17.48;;;6.70;;
63050;SDS011;49136;47.416;19.402;2022-11-20T01:11:13;22.80;;;6.40;;
63050;SDS011;49136;47.416;19.402;2022-11-20T01:13:41;14.65;;;8.80;;
63050;SDS011;49136;47.416;19.402;2022-11-20T01:18:53;19.92;;;7.13;;
63050;SDS011;49136;47.416;19.402;2022-11-20T01:21:25;22.15;;;7.00;;
63050;SDS011;49136;47.416;19.402;2022-11-20T01:23:52;22.65;;;8.80;;
63050;SDS011;49136;47.416;19.402;2022-11-20T01:26:20;17.52;;;7.18;;
63050;SDS011;49136;47.416;19.402;2022-11-20T01:28:47;10.07;;;4.55;;
63050;SDS011;49136;47.416;19.402;2022-11-20T01:31:26;11.93;;;5.53;;
63050;SDS011;49136;47.416;19.402;2022-11-20T01:33:54;11.38;;;6.15;;
63050;SDS011;49136;47.416;19.402;2022-11-20T01:36:21;14.40;;;5.22;;
63050;SDS011;49136;47.416;19.402;2022-11-20T01:38:52;13.52;;;3.95;;
63050;SDS011;49136;47.416;19.402;2022-11-20T01:41:18;16.10;;;5.28;;
63050;SDS011;49136;47.416;19.402;2022-11-20T01:44:03;11.15;;;2.47;;
63050;SDS011;49136;47.416;19.402;2022-11-20T01:46:29;17.48;;;7.03;;
63050;SDS011;49136;47.416;19.402;2022-11-20T01:48:58;10.23;;;5.25;;
63050;SDS011;49136;47.416;19.402;2022-11-20T01:51:27;14.48;;;4.63;;
63050;SDS011;49136;47.416;19.402;2022-11-20T01:53:58;15.75;;;6.78;;
63050;SDS011;49136;47.416;19.402;2022-11-20T01:56:27;14.25;;;5.63;;
63050;SDS011;49136;47.416;19.402;2022-11-20T01:58:56;9.63;;;4.95;;
63050;SDS011;49136;47.416;19.402;2022-11-20T02:01:23;20.58;;;8.70;;
63050;SDS011;49136;47.416;19.402;2022-11-20T02:03:49;19.77;;;7.63;;
63050;SDS011;49136;47.416;19.402;2022-11-20T02:06:28;20.90;;;7.03;;
63050;SDS011;49136;47.416;19.402;2022-11-20T02:08:57;13.95;;;5.03;;
63050;SDS011;49136;47.416;19.402;2022-11-20T02:11:23;6.25;;;4.20;;
63050;SDS011;49136;47.416;19.402;2022-11-20T02:13:49;14.65;;;6.55;;
63050;SDS011;49136;47.416;19.402;2022-11-20T02:18:46;20.25;;;7.57;;
63050;SDS011;49136;47.416;19.402;2022-11-20T02:23:38;5.60;;;3.75;;
63050;SDS011;49136;47.416;19.402;2022-11-20T02:26:09;17.53;;;4.47;;
63050;SDS011;49136;47.416;19.402;2022-11-20T02:28:37;9.70;;;5.32;;
63050;SDS011;49136;47.416;19.402;2022-11-20T02:31:02;22.13;;;7.13;;
63050;SDS011;49136;47.416;19.402;2022-11-20T02:33:27;25.17;;;8.50;;
63050;SDS011;49136;47.416;19.402;2022-11-20T02:35:53;35.88;;;9.98;;
63050;SDS011;49136;47.416;19.402;2022-11-20T02:38:18;15.65;;;4.95;;
63050;SDS011;49136;47.416;19.402;2022-11-20T02:40:44;14.70;;;4.97;;
63050;SDS011;49136;47.416;19.402;2022-11-20T02:43:10;23.58;;;7.72;;
63050;SDS011;49136;47.416;19.402;2022-11-20T02:45:35;15.65;;;6.80;;
63050;SDS011;49136;47.416;19.402;2022-11-20T02:48:01;15.40;;;4.88;;
63050;SDS011;49136;47.416;19.402;2022-11-20T02:50:26;24.42;;;6.95;;
63050;SDS011;49136;47.416;19.402;2022-11-20T02:52:52;8.85;;;4.13;;
63050;SDS011;49136;47.416;19.402;2022-11-20T02:55:17;24.02;;;8.07;;
63050;SDS011;49136;47.416;19.402;2022-11-20T02:57:43;13.07;;;5.20;;
63050;SDS011;49136;47.416;19.402;2022-11-20T03:00:08;15.43;;;5.70;;
63050;SDS011;49136;47.416;19.402;2022-11-20T03:02:34;16.27;;;5.80;;
63050;SDS011;49136;47.416;19.402;2022-11-20T03:04:59;9.18;;;4.65;;
63050;SDS011;49136;47.416;19.402;2022-11-20T03:07:25;15.70;;;7.47;;
63050;SDS011;49136;47.416;19.402;2022-11-20T03:09:50;9.93;;;4.53;;
63050;SDS011;49136;47.416;19.402;2022-11-20T03:12:15;11.32;;;3.55;;
63050;SDS011;49136;47.416;19.402;2022-11-20T03:14:41;35.08;;;7.90;;
63050;SDS011;49136;47.416;19.402;2022-11-20T03:17:07;14.82;;;5.82;;
63050;SDS011;49136;47.416;19.402;2022-11-20T03:19:32;11.57;;;6.72;;
63050;SDS011;49136;47.416;19.402;2022-11-20T03:21:59;12.18;;;4.20;;
63050;SDS011;49136;47.416;19.402;2022-11-20T03:24:25;22.33;;;8.32;;
63050;SDS011;49136;47.416;19.402;2022-11-20T03:26:50;14.05;;;6.13;;
63050;SDS011;49136;47.416;19.402;2022-11-20T03:29:16;8.90;;;4.82;;
63050;SDS011;49136;47.416;19.402;2022-11-20T03:31:41;10.20;;;5.20;;
63050;SDS011;49136;47.416;19.402;2022-11-20T03:34:07;16.30;;;5.30;;
63050;SDS011;49136;47.416;19.402;2022-11-20T03:36:34;18.30;;;5.68;;
63050;SDS011;49136;47.416;19.402;2022-11-20T03:38:59;7.60;;;4.25;;
63050;SDS011;49136;47.416;19.402;2022-11-20T03:41:26;12.07;;;6.13;;
63050;SDS011;49136;47.416;19.402;2022-11-20T03:43:57;20.33;;;4.75;;
63050;SDS011;49136;47.416;19.402;2022-11-20T03:46:24;18.88;;;8.00;;
63050;SDS011;49136;47.416;19.402;2022-11-20T03:48:51;21.35;;;8.05;;
63050;SDS011;49136;47.416;19.402;2022-11-20T03:51:21;20.83;;;6.13;;
63050;SDS011;49136;47.416;19.402;2022-11-20T03:53:48;14.63;;;7.15;;
63050;SDS011;49136;47.416;19.402;2022-11-20T03:56:15;15.80;;;5.13;;
63050;SDS011;49136;47.416;19.402;2022-11-20T03:58:42;24.25;;;6.35;;
63050;SDS011;49136;47.416;19.402;2022-11-20T04:01:09;11.95;;;5.63;;
63050;SDS011;49136;47.416;19.402;2022-11-20T04:03:37;15.30;;;6.00;;
63050;SDS011;49136;47.416;19.402;2022-11-20T04:06:13;18.42;;;6.43;;
63050;SDS011;49136;47.416;19.402;2022-11-20T04:08:42;8.43;;;4.65;;
63050;SDS011;49136;47.416;19.402;2022-11-20T04:11:11;14.00;;;5.90;;
63050;SDS011;49136;47.416;19.402;2022-11-20T04:13:38;19.92;;;6.32;;
63050;SDS011;49136;47.416;19.402;2022-11-20T04:16:07;19.45;;;8.10;;
63050;SDS011;49136;47.416;19.402;2022-11-20T04:18:34;9.50;;;4.90;;
63050;SDS011;49136;47.416;19.402;2022-11-20T04:21:00;17.67;;;7.47;;
63050;SDS011;49136;47.416;19.402;2022-11-20T04:23:26;22.15;;;7.25;;
63050;SDS011;49136;47.416;19.402;2022-11-20T04:25:51;14.40;;;5.95;;
63050;SDS011;49136;47.416;19.402;2022-11-20T04:28:17;15.05;;;5.95;;
63050;SDS011;49136;47.416;19.402;2022-11-20T04:30:43;23.83;;;6.32;;
63050;SDS011;49136;47.416;19.402;2022-11-20T04:33:08;17.58;;;5.75;;
63050;SDS011;49136;47.416;19.402;2022-11-20T04:35:34;18.40;;;5.95;;
63050;SDS011;49136;47.416;19.402;2022-11-20T04:38:00;11.35;;;4.75;;
63050;SDS011;49136;47.416;19.402;2022-11-20T04:40:25;19.23;;;6.85;;
63050;SDS011;49136;47.416;19.402;2022-11-20T04:42:51;9.35;;;4.80;;
63050;SDS011;49136;47.416;19.402;2022-11-20T04:45:16;22.77;;;7.22;;
63050;SDS011;49136;47.416;19.402;2022-11-20T04:47:41;12.75;;;7.88;;
63050;SDS011;49136;47.416;19.402;2022-11-20T04:50:07;24.60;;;6.55;;
63050;SDS011;49136;47.416;19.402;2022-11-20T04:52:32;14.18;;;7.50;;
63050;SDS011;49136;47.416;19.402;2022-11-20T04:54:58;28.20;;;6.93;;
63050;SDS011;49136;47.416;19.402;2022-11-20T04:57:23;20.52;;;7.53;;
63050;SDS011;49136;47.416;19.402;2022-11-20T04:59:49;22.75;;;7.63;;
63050;SDS011;49136;47.416;19.402;2022-11-20T05:02:14;22.60;;;7.25;;
63050;SDS011;49136;47.416;19.402;2022-11-20T05:04:39;15.48;;;7.53;;
63050;SDS011;49136;47.416;19.402;2022-11-20T05:07:05;12.23;;;6.15;;
63050;SDS011;49136;47.416;19.402;2022-11-20T05:09:30;17.70;;;7.05;;
63050;SDS011;49136;47.416;19.402;2022-11-20T05:11:56;30.13;;;8.38;;
63050;SDS011;49136;47.416;19.402;2022-11-20T05:14:21;17.17;;;7.20;;
63050;SDS011;49136;47.416;19.402;2022-11-20T05:16:47;7.20;;;4.97;;
63050;SDS011;49136;47.416;19.402;2022-11-20T05:19:12;20.42;;;8.55;;
63050;SDS011;49136;47.416;19.402;2022-11-20T05:21:38;16.50;;;6.50;;
63050;SDS011;49136;47.416;19.402;2022-11-20T05:24:03;18.30;;;8.32;;
63050;SDS011;49136;47.416;19.402;2022-11-20T05:26:29;15.55;;;5.80;;
63050;SDS011;49136;47.416;19.402;2022-11-20T05:28:55;18.52;;;6.00;;
63050;SDS011;49136;47.416;19.402;2022-11-20T05:31:21;13.48;;;5.30;;
63050;SDS011;49136;47.416;19.402;2022-11-20T05:33:48;21.60;;;6.43;;
63050;SDS011;49136;47.416;19.402;2022-11-20T05:36:13;25.08;;;7.20;;
63050;SDS011;49136;47.416;19.402;2022-11-20T05:38:39;27.27;;;9.02;;
63050;SDS011;49136;47.416;19.402;2022-11-20T05:41:10;12.40;;;7.15;;
63050;SDS011;49136;47.416;19.402;2022-11-20T05:43:37;13.38;;;6.47;;
63050;SDS011;49136;47.416;19.402;2022-11-20T05:46:04;23.02;;;8.57;;
63050;SDS011;49136;47.416;19.402;2022-11-20T05:48:31;10.13;;;6.70;;
63050;SDS011;49136;47.416;19.402;2022-11-20T05:50:58;18.75;;;8.27;;
63050;SDS011;49136;47.416;19.402;2022-11-20T05:53:24;18.60;;;6.68;;
63050;SDS011;49136;47.416;19.402;2022-11-20T05:56:23;15.65;;;6.82;;
63050;SDS011;49136;47.416;19.402;2022-11-20T05:58:43;17.23;;;7.88;;
63050;SDS011;49136;47.416;19.402;2022-11-20T06:03:43;24.50;;;9.77;;
63050;SDS011;49136;47.416;19.402;2022-11-20T06:06:11;24.25;;;9.13;;
63050;SDS011;49136;47.416;19.402;2022-11-20T06:08:36;35.83;;;11.65;;
63050;SDS011;49136;47.416;19.402;2022-11-20T06:11:05;12.00;;;7.00;;
63050;SDS011;49136;47.416;19.402;2022-11-20T06:13:32;22.67;;;6.90;;
63050;SDS011;49136;47.416;19.402;2022-11-20T06:15:58;21.30;;;7.65;;
63050;SDS011;49136;47.416;19.402;2022-11-20T06:18:25;16.85;;;7.53;;
63050;SDS011;49136;47.416;19.402;2022-11-20T06:20:58;21.23;;;7.75;;
63050;SDS011;49136;47.416;19.402;2022-11-20T06:23:44;13.98;;;6.55;;
63050;SDS011;49136;47.416;19.402;2022-11-20T06:26:11;17.63;;;8.52;;
63050;SDS011;49136;47.416;19.402;2022-11-20T06:28:38;27.65;;;9.18;;
63050;SDS011;49136;47.416;19.402;2022-11-20T06:31:04;24.83;;;9.27;;
63050;SDS011;49136;47.416;19.402;2022-11-20T06:33:30;19.92;;;7.63;;
63050;SDS011;49136;47.416;19.402;2022-11-20T06:35:56;18.25;;;7.47;;
63050;SDS011;49136;47.416;19.402;2022-11-20T06:38:23;11.13;;;5.70;;
63050;SDS011;49136;47.416;19.402;2022-11-20T06:40:49;11.77;;;6.05;;
63050;SDS011;49136;47.416;19.402;2022-11-20T06:43:15;30.17;;;9.15;;
63050;SDS011;49136;47.416;19.402;2022-11-20T06:45:40;15.60;;;7.03;;
63050;SDS011;49136;47.416;19.402;2022-11-20T06:48:05;15.23;;;6.43;;
63050;SDS011;49136;47.416;19.402;2022-11-20T06:50:31;16.38;;;7.07;;
63050;SDS011;49136;47.416;19.402;2022-11-20T06:52:56;11.40;;;4.93;;
63050;SDS011;49136;47.416;19.402;2022-11-20T06:55:26;16.15;;;6.03;;
63050;SDS011;49136;47.416;19.402;2022-11-20T06:57:51;10.90;;;5.85;;
63050;SDS011;49136;47.416;19.402;2022-11-20T07:00:16;17.63;;;6.03;;
63050;SDS011;49136;47.416;19.402;2022-11-20T07:02:42;11.98;;;7.25;;
63050;SDS011;49136;47.416;19.402;2022-11-20T07:05:07;21.63;;;9.07;;
63050;SDS011;49136;47.416;19.402;2022-11-20T07:07:33;27.45;;;7.80;;
63050;SDS011;49136;47.416;19.402;2022-11-20T07:09:58;14.07;;;6.97;;
63050;SDS011;49136;47.416;19.402;2022-11-20T07:12:24;16.52;;;7.13;;
63050;SDS011;49136;47.416;19.402;2022-11-20T07:14:49;15.00;;;7.20;;
63050;SDS011;49136;47.416;19.402;2022-11-20T07:17:14;21.67;;;6.65;;
63050;SDS011;49136;47.416;19.402;2022-11-20T07:19:40;31.40;;;10.27;;
63050;SDS011;49136;47.416;19.402;2022-11-20T07:22:05;16.65;;;7.97;;
63050;SDS011;49136;47.416;19.402;2022-11-20T07:24:31;22.23;;;9.15;;
63050;SDS011;49136;47.416;19.402;2022-11-20T07:26:56;25.50;;;7.10;;
63050;SDS011;49136;47.416;19.402;2022-11-20T07:29:21;15.98;;;8.60;;
63050;SDS011;49136;47.416;19.402;2022-11-20T07:31:47;19.02;;;8.10;;
63050;SDS011;49136;47.416;19.402;2022-11-20T07:34:12;25.75;;;9.30;;
63050;SDS011;49136;47.416;19.402;2022-11-20T07:36:37;21.35;;;9.13;;
63050;SDS011;49136;47.416;19.402;2022-11-20T07:39:03;22.33;;;6.85;;
63050;SDS011;49136;47.416;19.402;2022-11-20T07:41:28;24.08;;;8.90;;
63050;SDS011;49136;47.416;19.402;2022-11-20T07:43:54;19.60;;;7.45;;
63050;SDS011;49136;47.416;19.402;2022-11-20T07:46:19;16.60;;;7.88;;
63050;SDS011;49136;47.416;19.402;2022-11-20T07:48:45;23.77;;;8.98;;
63050;SDS011;49136;47.416;19.402;2022-11-20T07:51:10;29.42;;;9.02;;
63050;SDS011;49136;47.416;19.402;2022-11-20T07:53:35;23.58;;;9.55;;
63050;SDS011;49136;47.416;19.402;2022-11-20T07:56:01;32.28;;;10.45;;
63050;SDS011;49136;47.416;19.402;2022-11-20T07:58:30;18.35;;;8.30;;
63050;SDS011;49136;47.416;19.402;2022-11-20T08:00:58;25.35;;;9.52;;
63050;SDS011;49136;47.416;19.402;2022-11-20T08:03:27;19.33;;;8.68;;
63050;SDS011;49136;47.416;19.402;2022-11-20T08:05:52;18.58;;;8.00;;
63050;SDS011;49136;47.416;19.402;2022-11-20T08:08:18;20.77;;;8.55;;
63050;SDS011;49136;47.416;19.402;2022-11-20T08:10:43;22.67;;;8.75;;
63050;SDS011;49136;47.416;19.402;2022-11-20T08:13:08;17.00;;;6.60;;
63050;SDS011;49136;47.416;19.402;2022-11-20T08:15:52;16.25;;;7.25;;
63050;SDS011;49136;47.416;19.402;2022-11-20T08:18:18;23.52;;;9.18;;
63050;SDS011;49136;47.416;19.402;2022-11-20T08:20:43;16.08;;;6.55;;
63050;SDS011;49136;47.416;19.402;2022-11-20T08:23:10;29.27;;;9.50;;
63050;SDS011;49136;47.416;19.402;2022-11-20T08:25:36;17.45;;;7.57;;
63050;SDS011;49136;47.416;19.402;2022-11-20T08:28:05;20.70;;;7.20;;
63050;SDS011;49136;47.416;19.402;2022-11-20T08:30:32;20.70;;;9.65;;
63050;SDS011;49136;47.416;19.402;2022-11-20T08:33:03;20.05;;;10.88;;
63050;SDS011;49136;47.416;19.402;2022-11-20T08:35:33;21.40;;;9.98;;
63050;SDS011;49136;47.416;19.402;2022-11-20T08:38:00;23.73;;;9.07;;
63050;SDS011;49136;47.416;19.402;2022-11-20T08:40:26;18.67;;;9.20;;
63050;SDS011;49136;47.416;19.402;2022-11-20T08:42:52;31.70;;;9.93;;
63050;SDS011;49136;47.416;19.402;2022-11-20T08:45:18;24.73;;;9.90;;
63050;SDS011;49136;47.416;19.402;2022-11-20T08:47:44;34.33;;;10.48;;
63050;SDS011;49136;47.416;19.402;2022-11-20T08:50:10;34.85;;;12.00;;
63050;SDS011;49136;47.416;19.402;2022-11-20T08:52:37;26.55;;;11.10;;
63050;SDS011;49136;47.416;19.402;2022-11-20T08:55:03;25.33;;;9.77;;
63050;SDS011;49136;47.416;19.402;2022-11-20T08:57:36;29.13;;;10.38;;
63050;SDS011;49136;47.416;19.402;2022-11-20T09:00:03;36.72;;;10.93;;
63050;SDS011;49136;47.416;19.402;2022-11-20T09:02:30;28.58;;;11.55;;
63050;SDS011;49136;47.416;19.402;2022-11-20T09:04:57;33.53;;;12.15;;
63050;SDS011;49136;47.416;19.402;2022-11-20T09:07:22;33.30;;;11.13;;
63050;SDS011;49136;47.416;19.402;2022-11-20T09:09:48;25.27;;;9.65;;
63050;SDS011;49136;47.416;19.402;2022-11-20T09:12:13;23.65;;;10.00;;
63050;SDS011;49136;47.416;19.402;2022-11-20T09:14:39;21.23;;;8.25;;
63050;SDS011;49136;47.416;19.402;2022-11-20T09:17:04;21.13;;;8.95;;
63050;SDS011;49136;47.416;19.402;2022-11-20T09:19:30;15.15;;;7.03;;
63050;SDS011;49136;47.416;19.402;2022-11-20T09:21:55;23.77;;;7.88;;
63050;SDS011;49136;47.416;19.402;2022-11-20T09:24:20;21.83;;;10.70;;
63050;SDS011;49136;47.416;19.402;2022-11-20T09:26:46;42.83;;;12.50;;
63050;SDS011;49136;47.416;19.402;2022-11-20T09:29:12;24.52;;;10.00;;
63050;SDS011;49136;47.416;19.402;2022-11-20T09:31:37;32.92;;;11.75;;
63050;SDS011;49136;47.416;19.402;2022-11-20T09:34:03;24.20;;;8.70;;
63050;SDS011;49136;47.416;19.402;2022-11-20T09:36:28;22.23;;;10.70;;
63050;SDS011;49136;47.416;19.402;2022-11-20T09:38:54;22.27;;;9.88;;
63050;SDS011;49136;47.416;19.402;2022-11-20T09:55:08;20.35;;;8.55;;
63050;SDS011;49136;47.416;19.402;2022-11-20T09:57:37;22.77;;;7.60;;
63050;SDS011;49136;47.416;19.402;2022-11-20T10:00:06;22.80;;;8.77;;
63050;SDS011;49136;47.416;19.402;2022-11-20T10:05:45;22.08;;;8.63;;
63050;SDS011;49136;47.416;19.402;2022-11-20T10:08:24;19.30;;;7.80;;
63050;SDS011;49136;47.416;19.402;2022-11-20T10:11:32;34.28;;;9.52;;
63050;SDS011;49136;47.416;19.402;2022-11-20T10:13:52;36.30;;;9.75;;
63050;SDS011;49136;47.416;19.402;2022-11-20T10:31:07;18.45;;;8.52;;
63050;SDS011;49136;47.416;19.402;2022-11-20T10:33:44;19.17;;;8.70;;
63050;SDS011;49136;47.416;19.402;2022-11-20T10:38:45;22.23;;;7.80;;
63050;SDS011;49136;47.416;19.402;2022-11-20T10:41:23;24.38;;;9.02;;
63050;SDS011;49136;47.416;19.402;2022-11-20T10:46:32;18.55;;;8.80;;
63050;SDS011;49136;47.416;19.402;2022-11-20T10:49:02;24.02;;;9.95;;
63050;SDS011;49136;47.416;19.402;2022-11-20T10:51:31;18.35;;;8.73;;
63050;SDS011;49136;47.416;19.402;2022-11-20T10:54:16;27.08;;;8.68;;
63050;SDS011;49136;47.416;19.402;2022-11-20T10:56:48;26.10;;;9.32;;
63050;SDS011;49136;47.416;19.402;2022-11-20T11:01:50;24.23;;;8.60;;
63050;SDS011;49136;47.416;19.402;2022-11-20T11:07:25;20.23;;;7.22;;
63050;SDS011;49136;47.416;19.402;2022-11-20T11:09:55;18.98;;;7.45;;
63050;SDS011;49136;47.416;19.402;2022-11-20T11:12:22;23.85;;;10.27;;
63050;SDS011;49136;47.416;19.402;2022-11-20T11:14:50;31.20;;;11.05;;
63050;SDS011;49136;47.416;19.402;2022-11-20T11:17:23;15.93;;;7.53;;
63050;SDS011;49136;47.416;19.402;2022-11-20T11:20:06;17.75;;;8.40;;
63050;SDS011;49136;47.416;19.402;2022-11-20T11:22:43;18.58;;;8.57;;
63050;SDS011;49136;47.416;19.402;2022-11-20T11:25:20;20.20;;;8.00;;
63050;SDS011;49136;47.416;19.402;2022-11-20T11:27:50;23.33;;;9.18;;
63050;SDS011;49136;47.416;19.402;2022-11-20T11:30:17;28.60;;;9.77;;
63050;SDS011;49136;47.416;19.402;2022-11-20T11:32:44;29.23;;;8.93;;
63050;SDS011;49136;47.416;19.402;2022-11-20T11:35:23;26.48;;;8.52;;
63050;SDS011;49136;47.416;19.402;2022-11-20T11:38:10;19.65;;;7.90;;
63050;SDS011;49136;47.416;19.402;2022-11-20T11:40:40;20.33;;;8.32;;
63050;SDS011;49136;47.416;19.402;2022-11-20T11:43:06;21.27;;;8.38;;
63050;SDS011;49136;47.416;19.402;2022-11-20T11:46:01;20.50;;;9.10;;
63050;SDS011;49136;47.416;19.402;2022-11-20T11:48:27;14.88;;;6.90;;
63050;SDS011;49136;47.416;19.402;2022-11-20T11:50:52;14.93;;;6.75;;
63050;SDS011;49136;47.416;19.402;2022-11-20T11:53:22;16.77;;;9.35;;
63050;SDS011;49136;47.416;19.402;2022-11-20T11:58:39;20.23;;;8.20;;
63050;SDS011;49136;47.416;19.402;2022-11-20T12:01:29;15.20;;;6.70;;
63050;SDS011;49136;47.416;19.402;2022-11-20T12:04:17;21.90;;;7.78;;
63050;SDS011;49136;47.416;19.402;2022-11-20T12:06:51;24.48;;;8.57;;
63050;SDS011;49136;47.416;19.402;2022-11-20T12:09:24;19.50;;;6.88;;
63050;SDS011;49136;47.416;19.402;2022-11-20T12:12:04;24.75;;;9.40;;
63050;SDS011;49136;47.416;19.402;2022-11-20T12:14:34;17.35;;;7.80;;
63050;SDS011;49136;47.416;19.402;2022-11-20T12:17:02;22.83;;;9.77;;
63050;SDS011;49136;47.416;19.402;2022-11-20T12:19:29;17.48;;;7.05;;
63050;SDS011;49136;47.416;19.402;2022-11-20T12:30:15;30.90;;;9.82;;
63050;SDS011;49136;47.416;19.402;2022-11-20T12:32:49;38.45;;;11.73;;
63050;SDS011;49136;47.416;19.402;2022-11-20T12:35:26;18.98;;;8.93;;
63050;SDS011;49136;47.416;19.402;2022-11-20T12:43:11;38.33;;;13.75;;
63050;SDS011;49136;47.416;19.402;2022-11-20T12:46:06;31.55;;;11.88;;
63050;SDS011;49136;47.416;19.402;2022-11-20T12:51:43;27.33;;;10.38;;
63050;SDS011;49136;47.416;19.402;2022-11-20T12:57:05;25.20;;;11.23;;
63050;SDS011;49136;47.416;19.402;2022-11-20T13:00:30;23.25;;;8.80;;
63050;SDS011;49136;47.416;19.402;2022-11-20T13:08:20;33.83;;;11.18;;
63050;SDS011;49136;47.416;19.402;2022-11-20T13:16:03;33.42;;;10.80;;
63050;SDS011;49136;47.416;19.402;2022-11-20T13:18:37;21.52;;;9.48;;
63050;SDS011;49136;47.416;19.402;2022-11-20T13:21:21;31.58;;;11.38;;
63050;SDS011;49136;47.416;19.402;2022-11-20T13:26:32;40.42;;;13.70;;
63050;SDS011;49136;47.416;19.402;2022-11-20T13:29:31;31.45;;;14.43;;
63050;SDS011;49136;47.416;19.402;2022-11-20T13:31:50;22.88;;;10.25;;
63050;SDS011;49136;47.416;19.402;2022-11-20T13:34:25;27.13;;;11.75;;
63050;SDS011;49136;47.416;19.402;2022-11-20T13:36:53;24.30;;;9.85;;
63050;SDS011;49136;47.416;19.402;2022-11-20T13:39:24;31.98;;;12.05;;
63050;SDS011;49136;47.416;19.402;2022-11-20T13:41:54;37.58;;;14.15;;
63050;SDS011;49136;47.416;19.402;2022-11-20T13:44:47;35.00;;;10.75;;
63050;SDS011;49136;47.416;19.402;2022-11-20T13:47:23;37.78;;;14.20;;
63050;SDS011;49136;47.416;19.402;2022-11-20T13:49:51;23.90;;;10.27;;
63050;SDS011;49136;47.416;19.402;2022-11-20T13:55:15;26.00;;;10.20;;
63050;SDS011;49136;47.416;19.402;2022-11-20T14:00:25;39.95;;;13.65;;
63050;SDS011;49136;47.416;19.402;2022-11-20T14:03:36;29.58;;;11.35;;
63050;SDS011;49136;47.416;19.402;2022-11-20T14:05:40;27.15;;;11.07;;
63050;SDS011;49136;47.416;19.402;2022-11-20T14:08:25;32.58;;;12.35;;
63050;SDS011;49136;47.416;19.402;2022-11-20T14:11:03;34.20;;;13.52;;
63050;SDS011;49136;47.416;19.402;2022-11-20T14:13:29;40.72;;;13.50;;
63050;SDS011;49136;47.416;19.402;2022-11-20T14:15:57;33.95;;;14.48;;
63050;SDS011;49136;47.416;19.402;2022-11-20T14:18:25;30.02;;;10.95;;
63050;SDS011;49136;47.416;19.402;2022-11-20T14:20:51;33.20;;;13.15;;
63050;SDS011;49136;47.416;19.402;2022-11-20T14:23:23;32.47;;;13.50;;
63050;SDS011;49136;47.416;19.402;2022-11-20T14:25:53;50.13;;;18.05;;
63050;SDS011;49136;47.416;19.402;2022-11-20T14:28:24;26.90;;;11.32;;
63050;SDS011;49136;47.416;19.402;2022-11-20T14:30:52;27.70;;;11.35;;
63050;SDS011;49136;47.416;19.402;2022-11-20T14:33:19;30.10;;;11.82;;
63050;SDS011;49136;47.416;19.402;2022-11-20T14:38:12;31.27;;;13.65;;
63050;SDS011;49136;47.416;19.402;2022-11-20T14:40:40;33.90;;;13.40;;
63050;SDS011;49136;47.416;19.402;2022-11-20T14:45:54;41.83;;;16.52;;
63050;SDS011;49136;47.416;19.402;2022-11-20T14:48:41;37.03;;;16.40;;
63050;SDS011;49136;47.416;19.402;2022-11-20T14:51:10;44.30;;;16.30;;
63050;SDS011;49136;47.416;19.402;2022-11-20T14:53:47;30.00;;;13.60;;
63050;SDS011;49136;47.416;19.402;2022-11-20T14:56:13;37.53;;;14.68;;
63050;SDS011;49136;47.416;19.402;2022-11-20T14:58:54;41.20;;;16.38;;
63050;SDS011;49136;47.416;19.402;2022-11-20T15:01:30;41.10;;;15.63;;
63050;SDS011;49136;47.416;19.402;2022-11-20T15:04:01;33.72;;;14.50;;
63050;SDS011;49136;47.416;19.402;2022-11-20T15:06:32;28.55;;;14.00;;
63050;SDS011;49136;47.416;19.402;2022-11-20T15:08:58;42.53;;;16.50;;
63050;SDS011;49136;47.416;19.402;2022-11-20T15:11:31;40.42;;;14.65;;
63050;SDS011;49136;47.416;19.402;2022-11-20T15:13:59;36.13;;;14.43;;
63050;SDS011;49136;47.416;19.402;2022-11-20T15:16:28;26.55;;;12.40;;
63050;SDS011;49136;47.416;19.402;2022-11-20T15:18:53;37.63;;;15.35;;
63050;SDS011;49136;47.416;19.402;2022-11-20T15:21:20;50.80;;;16.60;;
63050;SDS011;49136;47.416;19.402;2022-11-20T15:23:46;37.40;;;14.55;;
63050;SDS011;49136;47.416;19.402;2022-11-20T15:26:12;53.22;;;19.10;;
63050;SDS011;49136;47.416;19.402;2022-11-20T15:28:42;35.65;;;13.73;;
63050;SDS011;49136;47.416;19.402;2022-11-20T15:31:11;32.78;;;15.00;;
63050;SDS011;49136;47.416;19.402;2022-11-20T15:33:37;44.30;;;13.25;;
63050;SDS011;49136;47.416;19.402;2022-11-20T15:36:03;35.92;;;17.25;;
63050;SDS011;49136;47.416;19.402;2022-11-20T15:38:29;44.40;;;16.23;;
63050;SDS011;49136;47.416;19.402;2022-11-20T15:40:55;31.45;;;14.45;;
63050;SDS011;49136;47.416;19.402;2022-11-20T15:43:21;37.38;;;17.30;;
63050;SDS011;49136;47.416;19.402;2022-11-20T15:45:48;52.33;;;18.85;;
63050;SDS011;49136;47.416;19.402;2022-11-20T15:48:17;36.22;;;12.95;;
63050;SDS011;49136;47.416;19.402;2022-11-20T15:53:19;40.50;;;16.73;;
63050;SDS011;49136;47.416;19.402;2022-11-20T15:55:44;37.75;;;16.30;;
63050;SDS011;49136;47.416;19.402;2022-11-20T15:58:10;43.50;;;17.13;;
63050;SDS011;49136;47.416;19.402;2022-11-20T16:00:35;53.08;;;17.95;;
63050;SDS011;49136;47.416;19.402;2022-11-20T16:03:01;42.25;;;19.10;;
63050;SDS011;49136;47.416;19.402;2022-11-20T16:05:29;41.90;;;17.67;;
63050;SDS011;49136;47.416;19.402;2022-11-20T16:07:55;34.47;;;16.27;;